createdAt,value
2023-04-21T00:00:18.653Z,54.55
2023-04-21T00:01:19.662Z,48.47
2023-04-21T00:02:18.732Z,53.84
2023-04-21T00:03:18.856Z,51.37
2023-04-21T00:04:18.803Z,53.72
2023-04-21T00:05:18.939Z,54.46
2023-04-21T00:06:18.617Z,52.39
2023-04-21T00:07:18.701Z,43.00
2023-04-21T00:08:18.603Z,43.48
2023-04-21T00:09:18.817Z,49.97
2023-04-21T00:10:18.586Z,46.35
2023-04-21T00:11:18.586Z,45.16
2023-04-21T00:12:18.602Z,46.59
2023-04-21T00:13:18.561Z,57.88
2023-04-21T00:14:18.552Z,58.35
2023-04-21T00:15:18.554Z,53.05
2023-04-21T00:16:18.576Z,50.28
2023-04-21T00:17:18.575Z,53.13
2023-04-21T00:18:18.525Z,57.95
2023-04-21T00:19:18.676Z,50.34
2023-04-21T00:20:18.519Z,54.38
2023-04-21T00:21:18.512Z,50.23
2023-04-21T00:22:18.517Z,48.73
2023-04-21T00:23:18.501Z,53.70
2023-04-21T00:24:18.476Z,53.66
2023-04-21T00:25:18.465Z,56.57
2023-04-21T00:26:18.470Z,51.04
2023-04-21T00:27:19.010Z,48.77
2023-04-21T00:28:18.447Z,54.48
2023-04-21T00:29:18.676Z,53.65
2023-04-21T00:30:18.434Z,55.18
2023-04-21T00:31:18.436Z,51.59
2023-04-21T00:32:18.470Z,47.27
2023-04-21T00:33:18.413Z,48.04
2023-04-21T00:34:18.403Z,46.00
2023-04-21T00:35:18.405Z,53.95
2023-04-21T00:36:18.397Z,53.41
2023-04-21T00:37:18.422Z,48.42
2023-04-21T00:38:18.373Z,53.58
2023-04-21T00:39:18.584Z,51.27
2023-04-21T00:40:18.380Z,48.24
2023-04-21T00:41:18.367Z,40.27
2023-04-21T00:42:18.366Z,50.66
2023-04-21T00:43:18.337Z,44.97
2023-04-21T00:44:18.328Z,47.88
2023-04-21T00:45:18.315Z,50.53
2023-04-21T00:46:18.379Z,47.34
2023-04-21T00:47:18.371Z,45.68
2023-04-21T00:48:18.298Z,48.28
2023-04-21T00:49:18.548Z,49.90
2023-04-21T00:50:18.282Z,48.42
2023-04-21T00:51:18.273Z,45.90
2023-04-21T00:52:18.301Z,48.64
2023-04-21T00:53:18.258Z,46.83
2023-04-21T00:54:18.247Z,52.69
2023-04-21T00:55:18.246Z,48.44
2023-04-21T00:56:18.230Z,45.21
2023-04-21T00:57:18.249Z,48.00
2023-04-21T00:58:18.223Z,51.65
2023-04-21T00:59:18.404Z,48.66
2023-04-21T01:00:18.211Z,50.14
2023-04-21T01:01:18.213Z,45.38
2023-04-21T01:02:18.332Z,51.89
2023-04-21T01:03:18.367Z,46.99
2023-04-21T01:04:19.208Z,47.76
2023-04-21T01:05:18.195Z,49.78
2023-04-21T01:06:18.294Z,51.72
2023-04-21T01:07:18.178Z,47.66
2023-04-21T01:08:18.140Z,49.57
2023-04-21T01:09:18.381Z,52.59
2023-04-21T01:10:18.128Z,44.77
2023-04-21T01:11:18.114Z,45.69
2023-04-21T01:12:18.135Z,47.24
2023-04-21T01:13:18.108Z,46.39
2023-04-21T01:14:18.096Z,46.95
2023-04-21T01:15:18.107Z,49.81
2023-04-21T01:16:18.141Z,49.53
2023-04-21T01:17:18.102Z,47.57
2023-04-21T01:18:18.090Z,43.52
2023-04-21T01:19:18.231Z,49.55
2023-04-21T01:20:18.055Z,48.15
2023-04-21T01:21:18.047Z,48.96
2023-04-21T01:22:18.033Z,44.12
2023-04-21T01:23:18.069Z,51.17
2023-04-21T01:24:18.025Z,52.56
2023-04-21T01:25:18.015Z,51.26
2023-04-21T01:26:18.005Z,52.04
2023-04-21T01:27:18.022Z,49.17
2023-04-21T01:28:18.009Z,44.87
2023-04-21T01:29:18.262Z,50.99
2023-04-21T01:30:17.966Z,54.53
2023-04-21T01:31:17.966Z,50.37
2023-04-21T01:32:18.065Z,46.97
2023-04-21T01:33:18.063Z,47.96
2023-04-21T01:34:17.940Z,43.53
2023-04-21T01:35:17.951Z,48.47
2023-04-21T01:36:17.920Z,44.13
2023-04-21T01:37:17.950Z,48.37
2023-04-21T01:38:19.309Z,49.84
2023-04-21T01:39:19.105Z,47.20
2023-04-21T01:40:17.897Z,51.87
2023-04-21T01:41:17.889Z,52.50
2023-04-21T01:42:17.883Z,51.08
2023-04-21T01:43:18.905Z,47.80
2023-04-21T01:44:17.875Z,43.25
2023-04-21T01:45:17.864Z,42.86
2023-04-21T01:46:17.888Z,51.94
2023-04-21T01:47:17.882Z,54.83
2023-04-21T01:48:17.927Z,48.91
2023-04-21T01:49:18.033Z,51.20
2023-04-21T01:50:17.832Z,44.56
2023-04-21T01:51:17.824Z,43.95
2023-04-21T01:52:17.828Z,45.34
2023-04-21T01:53:17.833Z,49.48
2023-04-21T01:54:17.802Z,51.60
2023-04-21T01:55:17.791Z,50.63
2023-04-21T01:56:17.777Z,50.86
2023-04-21T01:57:17.830Z,53.35
2023-04-21T01:58:17.759Z,51.05
2023-04-21T01:59:17.887Z,45.22
2023-04-21T02:00:17.760Z,49.75
2023-04-21T02:01:17.816Z,43.43
2023-04-21T02:02:17.800Z,50.35
2023-04-21T02:03:18.026Z,45.46
2023-04-21T02:04:17.849Z,44.87
2023-04-21T02:05:17.713Z,42.56
2023-04-21T02:06:17.700Z,47.62
2023-04-21T02:07:17.690Z,52.33
2023-04-21T02:08:17.710Z,46.38
2023-04-21T02:09:18.024Z,49.61
2023-04-21T02:10:17.669Z,50.63
2023-04-21T02:11:17.670Z,45.58
2023-04-21T02:12:17.656Z,48.08
2023-04-21T02:13:17.671Z,42.96
2023-04-21T02:14:17.639Z,45.06
2023-04-21T02:15:17.628Z,44.03
2023-04-21T02:16:17.637Z,46.87
2023-04-21T02:17:17.663Z,46.31
2023-04-21T02:18:17.635Z,47.30
2023-04-21T02:19:17.864Z,50.53
2023-04-21T02:20:17.638Z,46.24
2023-04-21T02:21:17.629Z,42.86
2023-04-21T02:22:17.577Z,49.86
2023-04-21T02:23:17.641Z,43.91
2023-04-21T02:24:17.610Z,48.65
2023-04-21T02:25:17.590Z,51.73
2023-04-21T02:26:17.560Z,53.84
2023-04-21T02:27:17.673Z,50.67
2023-04-21T02:28:17.573Z,43.19
2023-04-21T02:29:17.797Z,48.84
2023-04-21T02:30:17.601Z,48.25
2023-04-21T02:31:17.599Z,49.16
2023-04-21T02:32:25.499Z,53.48
2023-04-21T02:33:19.572Z,52.10
2023-04-21T02:34:17.491Z,49.60
2023-04-21T02:35:17.484Z,43.71
2023-04-21T02:36:17.474Z,50.81
2023-04-21T02:37:17.468Z,53.05
2023-04-21T02:38:17.500Z,57.25
2023-04-21T02:39:17.689Z,49.71
2023-04-21T02:40:17.484Z,46.10
2023-04-21T02:41:17.541Z,52.81
2023-04-21T02:42:17.444Z,54.32
2023-04-21T02:43:17.452Z,51.10
2023-04-21T02:44:17.529Z,45.35
2023-04-21T02:45:17.420Z,53.93
2023-04-21T02:46:17.696Z,54.03
2023-04-21T02:47:18.168Z,49.28
2023-04-21T02:48:17.434Z,50.67
2023-04-21T02:49:17.694Z,51.58
2023-04-21T02:50:17.392Z,50.57
2023-04-21T02:51:17.367Z,51.04
2023-04-21T02:52:17.360Z,48.32
2023-04-21T02:53:17.371Z,41.97
2023-04-21T02:54:17.337Z,53.10
2023-04-21T02:55:17.331Z,53.10
2023-04-21T02:56:17.343Z,55.52
2023-04-21T02:57:17.326Z,55.25
2023-04-21T02:58:17.356Z,51.51
2023-04-21T02:59:18.237Z,51.02
2023-04-21T03:00:17.291Z,56.41
2023-04-21T03:01:17.361Z,54.41
2023-04-21T03:02:17.360Z,57.18
2023-04-21T03:03:17.618Z,49.54
2023-04-21T03:04:17.372Z,53.82
2023-04-21T03:05:17.276Z,52.19
2023-04-21T03:06:17.259Z,56.25
2023-04-21T03:07:17.241Z,60.42
2023-04-21T03:08:17.271Z,54.05
2023-04-21T03:09:17.400Z,55.08
2023-04-21T03:10:17.217Z,55.84
2023-04-21T03:11:17.226Z,55.80
2023-04-21T03:12:17.201Z,52.85
2023-04-21T03:13:17.238Z,56.39
2023-04-21T03:14:17.206Z,52.96
2023-04-21T03:15:17.182Z,56.40
2023-04-21T03:16:17.210Z,57.76
2023-04-21T03:17:17.167Z,57.82
2023-04-21T03:18:17.188Z,58.87
2023-04-21T03:19:17.444Z,53.27
2023-04-21T03:20:17.172Z,57.83
2023-04-21T03:21:17.252Z,56.65
2023-04-21T03:22:17.286Z,56.67
2023-04-21T03:23:18.094Z,58.17
2023-04-21T03:24:17.202Z,59.09
2023-04-21T03:25:17.128Z,58.95
2023-04-21T03:26:17.110Z,57.09
2023-04-21T03:27:17.109Z,56.47
2023-04-21T03:28:17.139Z,59.38
2023-04-21T03:29:17.283Z,55.80
2023-04-21T03:30:17.099Z,59.52
2023-04-21T03:31:17.072Z,57.57
2023-04-21T03:32:17.165Z,57.32
2023-04-21T03:33:17.148Z,58.90
2023-04-21T03:34:17.107Z,58.29
2023-04-21T03:35:17.084Z,59.00
2023-04-21T03:36:17.047Z,57.52
2023-04-21T03:37:17.112Z,59.70
2023-04-21T03:38:17.080Z,59.81
2023-04-21T03:39:20.091Z,54.08
2023-04-21T03:40:18.029Z,59.38
2023-04-21T03:41:17.003Z,61.12
2023-04-21T03:42:16.983Z,60.04
2023-04-21T03:43:16.981Z,61.46
2023-04-21T03:44:17.032Z,58.57
2023-04-21T03:45:16.962Z,58.49
2023-04-21T03:46:17.054Z,58.03
2023-04-21T03:47:16.969Z,56.31
2023-04-21T03:48:16.980Z,60.32
2023-04-21T03:49:16.996Z,58.91
2023-04-21T03:50:17.965Z,57.80
2023-04-21T03:51:16.956Z,57.35
2023-04-21T03:52:16.934Z,58.25
2023-04-21T03:53:16.923Z,60.26
2023-04-21T03:54:16.924Z,59.74
2023-04-21T03:55:16.927Z,58.54
2023-04-21T03:56:16.911Z,57.98
2023-04-21T03:57:16.896Z,58.43
2023-04-21T03:58:16.889Z,56.89
2023-04-21T03:59:17.097Z,55.66
2023-04-21T04:00:16.884Z,56.26
2023-04-21T04:01:16.869Z,55.98
2023-04-21T04:02:16.953Z,58.38
2023-04-21T04:03:17.755Z,57.42
2023-04-21T04:04:17.269Z,56.33
2023-04-21T04:05:16.874Z,57.25
2023-04-21T04:06:16.834Z,58.03
2023-04-21T04:07:16.823Z,56.69
2023-04-21T04:08:16.848Z,60.03
2023-04-21T04:09:16.984Z,59.12
2023-04-21T04:10:16.812Z,59.16
2023-04-21T04:11:16.798Z,58.38
2023-04-21T04:12:16.792Z,57.29
2023-04-21T04:13:16.780Z,59.11
2023-04-21T04:14:16.931Z,59.23
2023-04-21T04:15:16.774Z,59.27
2023-04-21T04:16:16.757Z,58.50
2023-04-21T04:17:16.743Z,60.28
2023-04-21T04:18:16.757Z,60.14
2023-04-21T04:19:16.806Z,58.20
2023-04-21T04:20:16.689Z,58.95
2023-04-21T04:21:16.715Z,59.29
2023-04-21T04:22:16.708Z,59.60
2023-04-21T04:23:16.672Z,59.77
2023-04-21T04:24:16.684Z,60.33
2023-04-21T04:25:16.648Z,59.82
2023-04-21T04:26:16.685Z,59.67
2023-04-21T04:27:16.683Z,60.52
2023-04-21T04:28:16.656Z,60.04
2023-04-21T04:29:16.757Z,60.15
2023-04-21T04:30:16.670Z,61.17
2023-04-21T04:31:16.674Z,59.62
2023-04-21T04:32:16.640Z,60.31
2023-04-21T04:33:16.630Z,61.45
2023-04-21T04:34:16.649Z,59.41
2023-04-21T04:35:16.596Z,60.22
2023-04-21T04:36:16.582Z,57.80
2023-04-21T04:37:16.560Z,60.29
2023-04-21T04:38:16.557Z,60.18
2023-04-21T04:39:16.627Z,60.34
2023-04-21T04:40:16.536Z,61.12
2023-04-21T04:41:16.608Z,61.17
2023-04-21T04:42:16.718Z,60.66
2023-04-21T04:43:16.516Z,58.58
2023-04-21T04:44:16.535Z,60.89
2023-04-21T04:45:16.501Z,61.24
2023-04-21T04:46:16.544Z,61.03
2023-04-21T04:47:16.508Z,61.07
2023-04-21T04:48:16.494Z,60.68
2023-04-21T04:49:16.503Z,58.18
2023-04-21T04:50:16.479Z,58.73
2023-04-21T04:51:16.508Z,57.08
2023-04-21T04:52:16.464Z,61.09
2023-04-21T04:53:16.431Z,59.37
2023-04-21T04:54:16.509Z,59.96
2023-04-21T04:55:16.420Z,56.91
2023-04-21T04:56:16.435Z,60.74
2023-04-21T04:57:16.401Z,59.47
2023-04-21T04:58:16.416Z,60.01
2023-04-21T04:59:16.419Z,59.73
2023-04-21T05:00:16.405Z,59.58
2023-04-21T05:01:16.367Z,59.83
2023-04-21T05:02:16.478Z,59.22
2023-04-21T05:03:16.495Z,56.63
2023-04-21T05:04:16.636Z,58.37
2023-04-21T05:05:16.476Z,58.28
2023-04-21T05:06:16.341Z,58.72
2023-04-21T05:07:16.335Z,59.43
2023-04-21T05:08:17.975Z,56.97
2023-04-21T05:09:17.337Z,59.66
2023-04-21T05:10:16.320Z,56.64
2023-04-21T05:11:16.325Z,57.38
2023-04-21T05:12:16.281Z,58.41
2023-04-21T05:13:16.274Z,59.43
2023-04-21T05:14:16.293Z,59.26
2023-04-21T05:15:16.272Z,60.63
2023-04-21T05:16:16.311Z,60.28
2023-04-21T05:17:16.249Z,58.70
2023-04-21T05:18:16.231Z,57.60
2023-04-21T05:19:48.174Z,57.41
2023-04-21T05:20:16.232Z,60.52
2023-04-21T05:21:16.228Z,58.33
2023-04-21T05:22:16.237Z,56.93
2023-04-21T05:23:16.229Z,59.15
2023-04-21T05:24:16.271Z,60.61
2023-04-21T05:25:16.250Z,57.77
2023-04-21T05:26:16.182Z,59.26
2023-04-21T05:27:16.171Z,56.09
2023-04-21T05:28:16.167Z,60.99
2023-04-21T05:29:16.940Z,57.74
2023-04-21T05:30:16.158Z,59.79
2023-04-21T05:31:16.142Z,59.56
2023-04-21T05:32:16.186Z,59.83
2023-04-21T05:33:16.194Z,57.30
2023-04-21T05:34:16.196Z,58.44
2023-04-21T05:35:16.111Z,57.83
2023-04-21T05:36:16.110Z,60.31
2023-04-21T05:37:16.104Z,59.92
2023-04-21T05:38:16.211Z,58.05
2023-04-21T05:39:16.471Z,59.50
2023-04-21T05:40:16.078Z,61.42
2023-04-21T05:41:16.076Z,59.72
2023-04-21T05:42:16.070Z,60.17
2023-04-21T05:43:16.048Z,59.82
2023-04-21T05:44:16.108Z,61.05
2023-04-21T05:45:17.037Z,58.89
2023-04-21T05:46:16.137Z,59.53
2023-04-21T05:47:16.017Z,60.15
2023-04-21T05:48:16.049Z,59.51
2023-04-21T05:49:16.024Z,57.35
2023-04-21T05:50:16.011Z,59.53
2023-04-21T05:51:15.976Z,59.55
2023-04-21T05:52:15.974Z,59.76
2023-04-21T05:53:15.961Z,59.47
2023-04-21T05:54:15.978Z,58.68
2023-04-21T05:55:15.962Z,58.97
2023-04-21T05:56:15.950Z,59.31
2023-04-21T05:57:15.936Z,58.14
2023-04-21T05:58:15.930Z,60.19
2023-04-21T05:59:15.968Z,60.28
2023-04-21T06:00:15.903Z,57.97
2023-04-21T06:01:15.927Z,59.35
2023-04-21T06:02:15.958Z,60.08
2023-04-21T06:03:16.076Z,60.03
2023-04-21T06:04:16.027Z,56.87
2023-04-21T06:05:15.909Z,58.10
2023-04-21T06:06:15.888Z,59.83
2023-04-21T06:07:17.552Z,59.59
2023-04-21T06:08:15.862Z,59.71
2023-04-21T06:09:15.882Z,56.75
2023-04-21T06:10:15.844Z,57.15
2023-04-21T06:11:15.827Z,56.67
2023-04-21T06:12:15.820Z,57.70
2023-04-21T06:13:15.824Z,60.44
2023-04-21T06:14:15.846Z,59.58
2023-04-21T06:15:15.804Z,57.00
2023-04-21T06:16:15.840Z,59.25
2023-04-21T06:17:15.786Z,60.12
2023-04-21T06:18:15.799Z,59.97
2023-04-21T06:19:15.790Z,59.10
2023-04-21T06:20:15.925Z,58.10
2023-04-21T06:21:15.761Z,59.20
2023-04-21T06:22:15.842Z,59.96
2023-04-21T06:23:15.738Z,55.81
2023-04-21T06:24:15.770Z,57.40
2023-04-21T06:25:15.738Z,58.65
2023-04-21T06:26:15.711Z,58.34
2023-04-21T06:27:15.707Z,53.63
2023-04-21T06:28:15.701Z,57.85
2023-04-21T06:29:15.715Z,56.37
2023-04-21T06:30:15.693Z,57.84
2023-04-21T06:31:15.850Z,52.92
2023-04-21T06:32:15.668Z,56.49
2023-04-21T06:33:15.664Z,56.43
2023-04-21T06:34:15.686Z,55.60
2023-04-21T06:35:15.644Z,55.92
2023-04-21T06:36:17.494Z,56.80
2023-04-21T06:37:15.642Z,58.95
2023-04-21T06:38:15.665Z,56.86
2023-04-21T06:39:15.662Z,59.35
2023-04-21T06:40:15.600Z,57.64
2023-04-21T06:41:15.593Z,57.16
2023-04-21T06:42:15.586Z,54.96
2023-04-21T06:43:15.588Z,57.03
2023-04-21T06:44:15.606Z,57.25
2023-04-21T06:45:15.578Z,56.66
2023-04-21T06:46:15.555Z,56.30
2023-04-21T06:47:15.612Z,56.04
2023-04-21T06:48:15.610Z,57.67
2023-04-21T06:49:15.559Z,54.42
2023-04-21T06:50:15.528Z,55.94
2023-04-21T06:51:15.521Z,56.08
2023-04-21T06:52:16.370Z,56.42
2023-04-21T06:53:15.520Z,58.06
2023-04-21T06:54:15.575Z,57.15
2023-04-21T06:55:15.490Z,57.36
2023-04-21T06:56:15.481Z,52.35
2023-04-21T06:57:15.510Z,58.34
2023-04-21T06:58:15.461Z,55.12
2023-04-21T06:59:15.477Z,56.72
2023-04-21T07:00:15.472Z,55.99
2023-04-21T07:01:15.473Z,56.50
2023-04-21T07:02:15.444Z,55.04
2023-04-21T07:03:15.622Z,57.83
2023-04-21T07:04:15.489Z,59.32
2023-04-21T07:05:15.434Z,59.87
2023-04-21T07:06:15.499Z,53.63
2023-04-21T07:07:15.408Z,57.29
2023-04-21T07:08:15.391Z,54.27
2023-04-21T07:09:15.384Z,56.70
2023-04-21T07:10:15.410Z,55.11
2023-04-21T07:11:15.373Z,57.05
2023-04-21T07:12:15.381Z,54.79
2023-04-21T07:13:15.348Z,52.35
2023-04-21T07:14:15.378Z,54.79
2023-04-21T07:15:15.369Z,57.26
2023-04-21T07:16:15.350Z,55.78
2023-04-21T07:17:15.321Z,56.01
2023-04-21T07:18:15.358Z,56.85
2023-04-21T07:19:15.314Z,56.47
2023-04-21T07:20:15.336Z,57.46
2023-04-21T07:21:15.297Z,55.39
2023-04-21T07:22:15.287Z,54.60
2023-04-21T07:23:15.287Z,57.25
2023-04-21T07:24:15.278Z,53.72
2023-04-21T07:25:15.269Z,57.34
2023-04-21T07:26:15.280Z,56.20
2023-04-21T07:27:15.278Z,54.79
2023-04-21T07:28:15.234Z,54.26
2023-04-21T07:29:15.237Z,55.07
2023-04-21T07:30:15.230Z,56.23
2023-04-21T07:31:15.299Z,56.08
2023-04-21T07:32:15.215Z,57.39
2023-04-21T07:33:15.224Z,57.05
2023-04-21T07:34:15.198Z,54.21
2023-04-21T07:35:16.215Z,57.17
2023-04-21T07:36:15.180Z,56.74
2023-04-21T07:37:15.181Z,54.24
2023-04-21T07:38:15.163Z,56.11
2023-04-21T07:39:15.167Z,58.40
2023-04-21T07:40:15.180Z,57.82
2023-04-21T07:41:15.192Z,56.39
2023-04-21T07:42:15.128Z,55.69
2023-04-21T07:43:15.125Z,57.55
2023-04-21T07:44:15.109Z,57.37
2023-04-21T07:45:15.177Z,53.73
2023-04-21T07:46:15.135Z,58.25
2023-04-21T07:47:15.093Z,58.48
2023-04-21T07:48:15.119Z,57.02
2023-04-21T07:49:15.202Z,58.50
2023-04-21T07:50:15.114Z,57.59
2023-04-21T07:51:15.083Z,52.17
2023-04-21T07:52:15.050Z,54.83
2023-04-21T07:53:15.061Z,59.02
2023-04-21T07:54:15.038Z,57.26
2023-04-21T07:55:15.057Z,56.29
2023-04-21T07:56:15.040Z,56.99
2023-04-21T07:57:15.013Z,55.70
2023-04-21T07:58:15.008Z,54.70
2023-04-21T07:59:15.002Z,58.96
2023-04-21T08:00:15.012Z,59.24
2023-04-21T08:01:14.994Z,58.33
2023-04-21T08:02:15.079Z,56.31
2023-04-21T08:03:15.093Z,57.75
2023-04-21T08:04:15.055Z,59.54
2023-04-21T08:05:15.186Z,56.75
2023-04-21T08:06:15.103Z,59.22
2023-04-21T08:07:15.007Z,60.88
2023-04-21T08:08:14.926Z,59.24
2023-04-21T08:09:14.967Z,57.61
2023-04-21T08:10:14.937Z,57.27
2023-04-21T08:11:14.923Z,54.20
2023-04-21T08:12:15.102Z,53.43
2023-04-21T08:13:14.906Z,55.85
2023-04-21T08:14:14.882Z,56.53
2023-04-21T08:15:14.923Z,54.25
2023-04-21T08:16:14.908Z,56.53
2023-04-21T08:17:14.854Z,55.95
2023-04-21T08:18:14.932Z,56.42
2023-04-21T08:19:14.853Z,57.33
2023-04-21T08:20:14.880Z,56.94
2023-04-21T08:21:14.836Z,54.51
2023-04-21T08:22:14.822Z,57.67
2023-04-21T08:23:14.920Z,53.01
2023-04-21T08:24:14.807Z,56.91
2023-04-21T08:25:14.837Z,56.35
2023-04-21T08:26:14.862Z,58.26
2023-04-21T08:27:14.787Z,56.62
2023-04-21T08:28:14.832Z,57.68
2023-04-21T08:29:14.788Z,57.43
2023-04-21T08:30:14.795Z,57.17
2023-04-21T08:31:14.749Z,58.88
2023-04-21T08:32:14.768Z,55.70
2023-04-21T08:33:14.811Z,58.13
2023-04-21T08:34:14.744Z,56.50
2023-04-21T08:35:14.821Z,54.44
2023-04-21T08:37:15.705Z,57.12
2023-04-21T08:38:14.709Z,56.16
2023-04-21T08:39:14.692Z,57.78
2023-04-21T08:40:14.761Z,54.68
2023-04-21T08:41:14.675Z,55.44
2023-04-21T08:42:14.679Z,58.16
2023-04-21T08:43:14.705Z,57.49
2023-04-21T08:44:14.649Z,58.50
2023-04-21T08:45:14.680Z,55.57
2023-04-21T08:46:15.555Z,57.81
2023-04-21T08:47:14.701Z,57.61
2023-04-21T08:48:14.720Z,57.68
2023-04-21T08:49:14.613Z,56.70
2023-04-21T08:50:14.709Z,55.14
2023-04-21T08:51:14.599Z,56.49
2023-04-21T08:52:14.616Z,58.85
2023-04-21T08:53:14.580Z,57.05
2023-04-21T08:54:14.577Z,57.46
2023-04-21T08:55:14.627Z,58.32
2023-04-21T08:56:14.568Z,58.26
2023-04-21T08:57:16.138Z,57.28
2023-04-21T08:58:15.550Z,57.85
2023-04-21T08:59:14.535Z,55.34
2023-04-21T09:00:14.557Z,59.17
2023-04-21T09:01:14.524Z,58.70
2023-04-21T09:02:14.587Z,58.31
2023-04-21T09:03:25.016Z,59.28
2023-04-21T09:04:16.661Z,56.30
2023-04-21T09:05:14.689Z,55.21
2023-04-21T09:06:14.702Z,57.79
2023-04-21T09:07:14.486Z,59.20
2023-04-21T09:08:14.478Z,59.04
2023-04-21T09:09:14.461Z,56.96
2023-04-21T09:10:14.477Z,60.01
2023-04-21T09:11:14.470Z,58.15
2023-04-21T09:12:14.456Z,57.95
2023-04-21T09:13:14.444Z,56.24
2023-04-21T09:14:14.425Z,57.72
2023-04-21T09:15:14.444Z,58.72
2023-04-21T09:16:14.418Z,60.01
2023-04-21T09:17:14.478Z,58.30
2023-04-21T09:18:14.395Z,57.23
2023-04-21T09:19:14.385Z,57.59
2023-04-21T09:20:14.428Z,60.06
2023-04-21T09:21:14.375Z,59.62
2023-04-21T09:22:14.369Z,59.11
2023-04-21T09:23:14.379Z,56.86
2023-04-21T09:24:14.386Z,58.83
2023-04-21T09:25:14.370Z,59.77
2023-04-21T09:26:14.338Z,59.21
2023-04-21T09:27:14.328Z,61.44
2023-04-21T09:28:14.319Z,57.15
2023-04-21T09:29:14.308Z,58.86
2023-04-21T09:30:14.337Z,59.67
2023-04-21T09:31:14.393Z,59.39
2023-04-21T09:32:14.292Z,59.89
2023-04-21T09:33:27.123Z,57.65
2023-04-21T09:34:16.360Z,55.48
2023-04-21T09:35:14.291Z,57.40
2023-04-21T09:36:14.262Z,55.99
2023-04-21T09:37:15.671Z,56.84
2023-04-21T09:38:14.237Z,59.38
2023-04-21T09:39:35.706Z,58.17
2023-04-21T09:40:16.278Z,56.45
2023-04-21T09:41:14.218Z,52.88
2023-04-21T09:42:14.214Z,58.96
2023-04-21T09:43:14.204Z,59.85
2023-04-21T09:44:14.219Z,56.59
2023-04-21T09:45:32.434Z,59.27
2023-04-21T09:46:16.230Z,58.95
2023-04-21T09:47:14.173Z,59.13
2023-04-21T09:48:14.172Z,59.39
2023-04-21T09:49:14.155Z,59.61
2023-04-21T09:50:14.189Z,58.29
2023-04-21T09:51:28.675Z,56.49
2023-04-21T09:52:19.414Z,58.58
2023-04-21T09:53:15.138Z,57.42
2023-04-21T09:54:28.375Z,56.59
2023-04-21T09:55:16.133Z,57.36
2023-04-21T09:56:14.115Z,59.09
2023-04-21T09:57:14.097Z,56.25
2023-04-21T09:58:14.087Z,56.88
2023-04-21T09:59:14.093Z,57.23
2023-04-21T10:00:14.123Z,63.21
2023-04-21T10:01:14.155Z,58.90
2023-04-21T10:02:14.140Z,59.50
2023-04-21T10:03:14.161Z,61.27
2023-04-21T10:04:14.260Z,62.48
2023-04-21T10:05:15.104Z,61.26
2023-04-21T10:06:14.093Z,61.09
2023-04-21T10:07:14.120Z,57.90
2023-04-21T10:08:14.045Z,56.97
2023-04-21T10:09:14.004Z,57.47
2023-04-21T10:10:14.075Z,58.20
2023-04-21T10:11:14.067Z,61.42
2023-04-21T10:12:14.002Z,58.80
2023-04-21T10:13:13.980Z,59.03
2023-04-21T10:14:13.983Z,55.36
2023-04-21T10:15:13.959Z,59.56
2023-04-21T10:16:14.036Z,57.81
2023-04-21T10:17:14.437Z,58.92
2023-04-21T10:18:13.995Z,58.78
2023-04-21T10:19:13.932Z,59.18
2023-04-21T10:20:13.920Z,59.38
2023-04-21T10:21:14.025Z,57.60
2023-04-21T10:22:13.939Z,58.37
2023-04-21T10:23:13.905Z,56.38
2023-04-21T10:24:13.889Z,55.76
2023-04-21T10:25:13.902Z,58.30
2023-04-21T10:26:13.969Z,61.19
2023-04-21T10:27:13.926Z,56.71
2023-04-21T10:28:13.866Z,58.64
2023-04-21T10:29:13.848Z,59.39
2023-04-21T10:30:13.842Z,59.00
2023-04-21T10:31:14.072Z,60.14
2023-04-21T10:32:13.863Z,61.78
2023-04-21T10:33:13.832Z,60.81
2023-04-21T10:34:13.819Z,57.94
2023-04-21T10:35:13.814Z,59.63
2023-04-21T10:36:13.829Z,60.42
2023-04-21T10:37:13.802Z,59.80
2023-04-21T10:38:13.788Z,56.93
2023-04-21T10:39:13.772Z,58.47
2023-04-21T10:40:13.850Z,58.19
2023-04-21T10:41:13.760Z,58.24
2023-04-21T10:42:13.826Z,60.76
2023-04-21T10:43:13.778Z,60.70
2023-04-21T10:44:14.773Z,61.02
2023-04-21T10:45:13.782Z,62.45
2023-04-21T10:46:13.772Z,59.02
2023-04-21T10:47:13.852Z,58.19
2023-04-21T10:48:14.429Z,60.02
2023-04-21T10:49:13.706Z,60.24
2023-04-21T10:50:13.707Z,58.02
2023-04-21T10:51:13.696Z,65.12
2023-04-21T10:52:13.707Z,62.27
2023-04-21T10:53:13.690Z,65.61
2023-04-21T10:54:13.682Z,61.93
2023-04-21T10:55:13.692Z,60.29
2023-04-21T10:56:13.667Z,62.12
2023-04-21T10:57:13.701Z,66.31
2023-04-21T10:58:13.640Z,60.16
2023-04-21T10:59:13.633Z,59.06
2023-04-21T11:00:13.640Z,60.43
2023-04-21T11:01:13.753Z,62.81
2023-04-21T11:02:13.724Z,57.74
2023-04-21T11:03:13.716Z,58.07
2023-04-21T11:04:13.870Z,59.67
2023-04-21T11:05:13.707Z,59.48
2023-04-21T11:06:13.579Z,62.56
2023-04-21T11:07:13.618Z,62.22
2023-04-21T11:08:13.558Z,58.81
2023-04-21T11:09:13.559Z,59.34
2023-04-21T11:10:13.717Z,61.12
2023-04-21T11:11:13.533Z,61.98
2023-04-21T11:12:13.556Z,60.87
2023-04-21T11:13:13.532Z,64.12
2023-04-21T11:14:13.512Z,63.33
2023-04-21T11:15:13.581Z,60.81
2023-04-21T11:16:13.525Z,60.40
2023-04-21T11:17:13.521Z,60.92
2023-04-21T11:18:13.533Z,59.27
2023-04-21T11:19:23.412Z,61.91
2023-04-21T11:20:13.511Z,60.49
2023-04-21T11:21:13.496Z,60.06
2023-04-21T11:22:13.506Z,58.63
2023-04-21T11:23:13.463Z,60.90
2023-04-21T11:24:13.437Z,62.96
2023-04-21T11:25:13.428Z,59.92
2023-04-21T11:26:13.443Z,62.76
2023-04-21T11:27:13.448Z,63.38
2023-04-21T11:28:13.411Z,62.44
2023-04-21T11:29:13.399Z,60.49
2023-04-21T11:30:13.401Z,59.47
2023-04-21T11:31:13.585Z,62.95
2023-04-21T11:32:13.408Z,63.42
2023-04-21T11:33:13.411Z,63.02
2023-04-21T11:34:13.371Z,60.47
2023-04-21T11:35:13.356Z,64.96
2023-04-21T11:36:13.361Z,61.88
2023-04-21T11:37:13.393Z,63.70
2023-04-21T11:38:13.334Z,61.67
2023-04-21T11:39:13.335Z,60.50
2023-04-21T11:40:13.324Z,62.11
2023-04-21T11:41:13.316Z,65.59
2023-04-21T11:42:13.340Z,59.36
2023-04-21T11:43:13.385Z,59.91
2023-04-21T11:44:13.303Z,60.27
2023-04-21T11:45:13.289Z,63.15
2023-04-21T11:46:13.411Z,61.45
2023-04-21T11:47:13.317Z,59.37
2023-04-21T11:48:13.287Z,59.85
2023-04-21T11:49:13.256Z,59.47
2023-04-21T11:50:13.261Z,58.62
2023-04-21T11:51:13.241Z,59.77
2023-04-21T11:52:13.275Z,61.46
2023-04-21T11:53:13.225Z,58.66
2023-04-21T11:54:13.226Z,56.03
2023-04-21T11:55:13.225Z,59.15
2023-04-21T11:56:13.206Z,59.06
2023-04-21T11:57:13.228Z,60.06
2023-04-21T11:58:13.186Z,60.30
2023-04-21T11:59:13.182Z,60.98
2023-04-21T12:00:13.181Z,58.09
2023-04-21T12:01:13.175Z,56.63
2023-04-21T12:02:13.235Z,56.75
2023-04-21T12:03:13.234Z,60.04
2023-04-21T12:04:13.232Z,62.58
2023-04-21T12:05:13.192Z,61.64
2023-04-21T12:06:13.190Z,60.38
2023-04-21T12:07:14.156Z,60.94
2023-04-21T12:08:13.109Z,63.15
2023-04-21T12:09:13.100Z,62.13
2023-04-21T12:10:13.122Z,61.21
2023-04-21T12:11:13.092Z,58.71
2023-04-21T12:12:13.112Z,59.82
2023-04-21T12:13:13.079Z,58.80
2023-04-21T12:14:13.067Z,60.29
2023-04-21T12:15:13.167Z,60.99
2023-04-21T12:16:13.068Z,59.45
2023-04-21T12:17:13.068Z,58.81
2023-04-21T12:18:13.069Z,59.05
2023-04-21T12:19:13.023Z,58.64
2023-04-21T12:20:13.025Z,62.44
2023-04-21T12:21:13.014Z,59.83
2023-04-21T12:22:14.028Z,60.49
2023-04-21T12:23:12.985Z,58.20
2023-04-21T12:24:12.978Z,54.01
2023-04-21T12:25:12.992Z,58.92
2023-04-21T12:26:12.972Z,54.80
2023-04-21T12:27:12.997Z,63.33
2023-04-21T12:28:12.969Z,59.42
2023-04-21T12:29:13.955Z,59.60
2023-04-21T12:30:12.946Z,59.54
2023-04-21T12:31:12.958Z,60.15
2023-04-21T12:32:12.998Z,58.57
2023-04-21T12:33:13.001Z,59.38
2023-04-21T12:34:12.990Z,57.95
2023-04-21T12:35:12.905Z,57.70
2023-04-21T12:36:12.898Z,58.89
2023-04-21T12:37:12.927Z,60.08
2023-04-21T12:38:12.885Z,58.77
2023-04-21T12:39:12.883Z,57.97
2023-04-21T12:40:12.894Z,59.87
2023-04-21T12:41:12.857Z,59.58
2023-04-21T12:42:12.875Z,57.95
2023-04-21T12:43:12.861Z,59.04
2023-04-21T12:44:12.831Z,60.47
2023-04-21T12:45:12.821Z,59.14
2023-04-21T12:46:12.852Z,57.22
2023-04-21T12:47:12.836Z,59.30
2023-04-21T12:48:12.878Z,59.47
2023-04-21T12:49:12.795Z,59.43
2023-04-21T12:50:12.800Z,63.64
2023-04-21T12:51:12.780Z,59.59
2023-04-21T12:52:12.838Z,60.46
2023-04-21T12:53:12.758Z,59.58